This is the latest recevied weather packets stored in our database for station/object KJ5FA-10. If no packets are shown the sender has not sent any weather packets the latest 10 day(s).
| Time | Temp. | Humidity | Pressure | Rain* | Wind** | Luminosity | Snow |
|---|---|---|---|---|---|---|---|
| 1777874072 | 15° C | 82% | 1016.4 hPa | 0 mm | - | - | - |
| 1777873171 | 15° C | 81% | 1016.5 hPa | 0 mm | - | - | - |
| 1777872272 | 15° C | 80% | 1016.6 hPa | 0 mm | - | - | - |
| 1777871371 | 15.56° C | 80% | 1016.3 hPa | 0 mm | - | - | - |
| 1777870471 | 15.56° C | 79% | 1016.5 hPa | 0 mm | - | - | - |
| 1777869571 | 15.56° C | 79% | 1016.4 hPa | 0 mm | - | - | - |
| 1777868671 | 15.56° C | 78% | 1016.4 hPa | 0 mm | - | - | - |
| 1777867772 | 16.11° C | 77% | 1016.4 hPa | 0 mm | - | - | - |
| 1777866872 | 16.11° C | 75% | 1016.6 hPa | 0 mm | - | - | - |
| 1777865972 | 16.67° C | 74% | 1016.7 hPa | 0 mm | - | - | - |
| 1777865071 | 16.67° C | 73% | 1016.8 hPa | 0 mm | - | - | - |
| 1777864171 | 17.22° C | 71% | 1016.6 hPa | 0 mm | - | - | - |
| 1777863271 | 17.78° C | 69% | 1016.6 hPa | 0 mm | - | - | - |
| 1777862372 | 18.33° C | 66% | 1016.6 hPa | 0 mm | - | - | - |
| 1777861471 | 18.89° C | 64% | 1016.3 hPa | 0 mm | - | - | - |
| 1777860572 | 19.44° C | 61% | 1016.1 hPa | 0 mm | - | - | - |
| 1777859672 | 20° C | 57% | 1016 hPa | 0 mm | - | - | - |
| 1777858772 | 21.11° C | 54% | 1015.8 hPa | 0 mm | - | - | - |
| 1777857872 | 21.67° C | 50% | 1015.9 hPa | 0 mm | - | - | - |
| 1777856972 | 22.78° C | 48% | 1015.7 hPa | 0 mm | - | - | - |
| 1777856071 | 23.33° C | 46% | 1015.7 hPa | 0 mm | - | - | - |
| 1777855171 | 23.89° C | 44% | 1015.5 hPa | 0 mm | - | - | - |
| 1777854272 | 24.44° C | 42% | 1015.5 hPa | 0 mm | - | - | - |
| 1777853372 | 25° C | 41% | 1015.7 hPa | 0 mm | - | - | - |
| 1777852472 | 25° C | 40% | 1015.7 hPa | 0 mm | - | - | - |
* Rain latest hour (hover to see other rain measurements)
** Current wind speed in m/s (hover to see current wind gust speed)